Time;durP1;ratioP1;P1;durP2;ratioP2;P2;SDS_P1;SDS_P2;PMS_P1;PMS_P2;Temp;Humidity;BMP_temperature;BMP_pressure;BME280_temperature;BME280_humidity;BME280_pressure;Samples;Min_cycle;Max_cycle;Signal;HPM_P1;HPM_P2
2023/01/29 00:01:07;;;;;;;3.65;1.75;;;;;;;-0.39;100.00;100754.81;5015787;28;20171;-95
2023/01/29 00:03:34;;;;;;;1.75;1.65;;;;;;;-0.49;100.00;100736.25;4992611;28;20041;-95
2023/01/29 00:06:00;;;;;;;1.08;1.05;;;;;;;-0.38;100.00;100745.50;5028181;28;20021;-94
2023/01/29 00:08:26;;;;;;;2.67;2.50;;;;;;;-0.49;100.00;100730.78;5016483;28;20037;-95
2023/01/29 00:10:51;;;;;;;0.52;0.50;;;;;;;-0.39;100.00;100752.09;5012920;28;21719;-93
2023/01/29 00:13:17;;;;;;;1.05;0.57;;;;;;;-0.55;100.00;100726.69;5000707;28;20033;-94
2023/01/29 00:15:52;;;;;;;1.20;0.95;;;;;;;-0.33;100.00;100761.63;5003812;28;20026;-94
2023/01/29 00:18:18;;;;;;;0.43;0.43;;;;;;;-0.49;100.00;100730.78;4999153;28;20483;-94
2023/01/29 00:20:43;;;;;;;0.88;0.82;;;;;;;-0.38;100.00;100763.78;5000780;28;20025;-95
2023/01/29 00:23:09;;;;;;;1.38;1.27;;;;;;;-0.52;100.00;100720.56;5016248;28;20033;-95
2023/01/29 00:25:34;;;;;;;1.77;1.65;;;;;;;-0.45;100.00;100742.59;5015487;28;20049;-94
2023/01/29 00:28:00;;;;;;;1.05;1.05;;;;;;;-0.31;100.00;100764.78;5016136;28;20080;-94
2023/01/29 00:30:26;;;;;;;0.75;0.75;;;;;;;-0.49;100.00;100733.50;5000159;28;20466;-95
2023/01/29 00:32:52;;;;;;;2.00;1.90;;;;;;;-0.42;100.00;100736.44;4999440;28;20037;-94
2023/01/29 00:35:19;;;;;;;1.58;1.48;;;;;;;-0.33;100.00;100748.00;4999217;28;20025;-94
2023/01/29 00:37:45;;;;;;;1.02;1.02;;;;;;;-0.47;100.00;100742.91;4997600;28;20033;-92
2023/01/29 00:40:11;;;;;;;0.70;0.70;;;;;;;-0.40;100.00;100752.44;5009111;28;20037;-92
2023/01/29 00:45:20;;;;;;;3.22;1.73;;;;;;;-0.42;100.00;100762.88;5037618;28;20076;-92
2023/01/29 00:47:46;;;;;;;0.57;0.57;;;;;;;-0.33;100.00;100767.06;5048253;28;20033;-93
2023/01/29 00:50:12;;;;;;;1.65;1.55;;;;;;;-0.31;100.00;100767.50;5025076;28;20119;-92
2023/01/29 00:52:39;;;;;;;0.10;0.10;;;;;;;-0.47;100.00;100750.28;5031213;28;20034;-92
2023/01/29 00:55:06;;;;;;;1.08;1.08;;;;;;;-0.33;100.00;100767.06;5030118;28;20068;-93
2023/01/29 00:57:33;;;;;;;2.53;0.98;;;;;;;-0.41;100.00;100748.13;5011349;28;20041;-91
2023/01/29 00:59:59;;;;;;;5.18;2.70;;;;;;;-0.39;100.00;100748.56;5021883;28;20710;-93
2023/01/29 01:05:16;;;;;;;2.15;1.08;;;;;;;-0.29;100.00;100767.97;5027942;28;20482;-92
2023/01/29 01:07:43;;;;;;;4.18;2.95;;;;;;;-0.24;100.00;100770.44;5014078;28;20044;-93
2023/01/29 01:10:19;;;;;;;1.50;1.40;;;;;;;-0.17;100.00;100780.75;5014550;28;20034;-93
2023/01/29 01:12:45;;;;;;;3.33;1.48;;;;;;;-0.29;100.00;100767.97;5023728;28;20037;-92
2023/01/29 01:15:11;;;;;;;0.43;0.43;;;;;;;-0.17;100.00;100776.09;4995575;28;20030;-96
2023/01/29 01:17:37;;;;;;;0.75;0.50;;;;;;;-0.20;100.00;100782.22;4998591;28;20387;-95
2023/01/29 01:20:03;;;;;;;1.13;1.10;;;;;;;-0.16;100.00;100788.56;5032770;28;20033;-95
2023/01/29 01:22:30;;;;;;;0.40;0.40;;;;;;;-0.16;100.00;100788.56;5016372;28;20033;-96
2023/01/29 01:24:56;;;;;;;0.63;0.63;;;;;;;-0.24;100.00;100781.34;5009978;28;20034;-95
2023/01/29 01:27:22;;;;;;;0.80;0.80;;;;;;;-0.12;100.00;100794.91;4997846;28;20045;-95
2023/01/29 01:29:48;;;;;;;2.10;1.45;;;;;;;-0.17;100.00;100795.19;4999189;28;20037;-95
2023/01/29 01:32:14;;;;;;;0.85;0.85;;;;;;;-0.20;100.00;100784.97;4994712;28;20033;-93
2023/01/29 01:34:40;;;;;;;1.90;1.80;;;;;;;-0.20;100.00;100790.41;5027817;28;20033;-95
2023/01/29 01:37:06;;;;;;;1.15;0.60;;;;;;;-0.30;100.00;100774.56;4995506;28;20066;-95
2023/01/29 01:39:31;;;;;;;1.27;1.27;;;;;;;-0.24;100.00;100781.34;5007581;28;20091;-94
2023/01/29 01:41:57;;;;;;;0.32;0.25;;;;;;;-0.27;100.00;100782.03;5013459;28;20487;-95
2023/01/29 01:45:05;;;;;;;0.10;0.10;;;;;;;-0.16;100.00;100804.94;5013360;28;20048;-95
2023/01/29 01:47:37;;;;;;;1.15;1.08;;;;;;;-0.14;100.00;100815.50;5014423;28;20507;-95
2023/01/29 01:50:10;;;;;;;0.20;0.20;;;;;;;-0.37;100.00;100782.53;5014719;28;20487;-95
2023/01/29 01:52:40;;;;;;;1.02;0.82;;;;;;;-0.40;100.00;100783.19;5008463;28;20040;-96
2023/01/29 01:55:08;;;;;;;1.55;1.45;;;;;;;-0.25;100.00;100807.03;5015370;28;20033;-94
2023/01/29 01:57:35;;;;;;;0.88;0.88;;;;;;;-0.18;100.00;100820.88;4996429;28;20039;-94
2023/01/29 02:00:11;;;;;;;0.85;0.75;;;;;;;-0.35;100.00;100790.34;5026557;28;20421;-95
2023/01/29 03:18:18;;;;;;;3.50;1.05;;;;;;;-0.24;100.00;100835.88;517058;26;20333;-92
2023/01/29 03:20:48;;;;;;;0.43;0.43;;;;;;;-0.33;100.00;100821.59;5013258;28;20423;-94
2023/01/29 03:23:25;;;;;;;0.10;0.10;;;;;;;-0.29;100.00;100821.69;5030566;28;20021;-96
2023/01/29 03:34:15;;;;;;;0.20;0.20;;;;;;;-0.24;100.00;100846.00;5030553;28;20029;-95
2023/01/29 03:36:54;;;;;;;0.32;0.32;;;;;;;-0.39;100.00;100831.13;5012119;28;20120;-90
2023/01/29 03:39:21;;;;;;;0.57;0.40;;;;;;;-0.24;100.00;100863.13;5046361;28;20040;-95
2023/01/29 03:41:54;;;;;;;0.43;0.43;;;;;;;-0.42;100.00;100828.31;5032655;28;20025;-95
2023/01/29 03:44:53;;;;;;;2.42;0.80;;;;;;;-0.26;100.00;100848.25;5019727;28;20025;-96
2023/01/29 03:47:33;;;;;;;0.43;0.43;;;;;;;-0.27;100.00;100852.91;5026827;28;20447;-94
2023/01/29 03:50:04;;;;;;;2.08;1.55;;;;;;;-0.33;100.00;100848.06;5051306;28;20548;-96
2023/01/29 03:52:45;;;;;;;0.05;0.05;;;;;;;-0.28;100.00;100859.50;5024928;28;20187;-91
2023/01/29 03:55:14;;;;;;;0.40;0.40;;;;;;;-0.25;100.00;100869.75;5027237;28;20063;-91
2023/01/29 03:57:54;;;;;;;0.47;0.47;;;;;;;-0.28;100.00;100864.94;5014500;28;20063;-90
2023/01/29 04:00:31;;;;;;;1.48;1.38;;;;;;;-0.27;100.00;100871.19;5043057;28;20043;-89
2023/01/29 04:03:27;;;;;;;0.00;0.00;;;;;;;-0.34;100.00;100858.16;5029560;28;20029;-90
2023/01/29 04:06:34;;;;;;;0.15;0.15;;;;;;;-0.37;100.00;100847.97;5040017;28;20030;-90
2023/01/29 04:09:04;;;;;;;0.68;0.68;;;;;;;-0.28;100.00;100866.91;5022688;28;20037;-91
2023/01/29 04:11:32;;;;;;;0.40;0.40;;;;;;;-0.52;100.00;100829.56;5035996;28;20060;-90
2023/01/29 04:13:59;;;;;;;0.25;0.25;;;;;;;-0.42;100.00;100848.19;5038855;28;20030;-92
2023/01/29 04:16:34;;;;;;;5.82;2.42;;;;;;;-0.38;100.00;100862.72;5033064;28;20040;-94
2023/01/29 04:19:15;;;;;;;0.20;0.20;;;;;;;-0.35;100.00;100867.47;5030249;28;20057;-94
2023/01/29 04:21:42;;;;;;;0.20;0.20;;;;;;;-0.34;100.00;100871.78;5015912;28;20516;-93
2023/01/29 04:24:09;;;;;;;0.40;0.40;;;;;;;-0.46;100.00;100855.47;5011144;28;20041;-94
2023/01/29 04:26:54;;;;;;;0.68;0.68;;;;;;;-0.33;100.00;100869.88;5011155;28;20136;-93
2023/01/29 04:29:45;;;;;;;0.20;0.20;;;;;;;-0.38;100.00;100870.91;5024930;28;20059;-95
2023/01/29 04:32:31;;;;;;;2.17;1.98;;;;;;;-0.44;100.00;100863.31;5029354;28;20091;-93
2023/01/29 04:35:35;;;;;;;0.75;0.75;;;;;;;-0.35;100.00;100866.69;5041868;28;20080;-94
2023/01/29 04:38:18;;;;;;;0.80;0.70;;;;;;;-0.41;100.00;100857.97;5025510;28;21557;-93
2023/01/29 04:41:04;;;;;;;0.85;0.85;;;;;;;-0.45;100.00;100854.34;5034041;28;20051;-93
2023/01/29 04:43:36;;;;;;;0.05;0.05;;;;;;;-0.38;100.00;100873.63;5020771;28;20041;-94
2023/01/29 04:46:11;;;;;;;2.10;1.90;;;;;;;-0.39;100.00;100866.56;5024523;28;20558;-94
2023/01/29 04:48:50;;;;;;;0.25;0.25;;;;;;;-0.46;100.00;100858.19;5032613;28;20024;-95
2023/01/29 04:51:27;;;;;;;1.52;0.82;;;;;;;-0.42;100.00;100867.25;5043928;28;20068;-94
2023/01/29 04:54:03;;;;;;;1.55;0.80;;;;;;;-0.42;100.00;100856.38;5014597;28;20025;-91
2023/01/29 04:56:45;;;;;;;1.55;1.45;;;;;;;-0.47;100.00;100853.88;5039802;28;20087;-91
2023/01/29 04:59:14;;;;;;;0.20;0.20;;;;;;;-0.51;100.00;100855.69;5021351;28;20100;-91
2023/01/29 05:01:40;;;;;;;0.22;0.22;;;;;;;-0.49;100.00;100867.84;5029380;28;20080;-91
2023/01/29 05:04:08;;;;;;;0.68;0.52;;;;;;;-0.42;100.00;100878.16;5026043;28;20575;-91
2023/01/29 05:06:34;;;;;;;0.50;0.50;;;;;;;-0.42;100.00;100878.16;5037389;28;20041;-90
2023/01/29 05:09:00;;;;;;;0.47;0.47;;;;;;;-0.64;100.00;100843.19;5032038;28;20048;-90
2023/01/29 05:11:27;;;;;;;2.10;1.30;;;;;;;-0.56;100.00;100866.81;5041457;28;20094;-92
2023/01/29 05:13:53;;;;;;;0.10;0.10;;;;;;;-0.65;100.00;100852.53;5024568;28;20032;-91
2023/01/29 05:16:27;;;;;;;0.90;0.90;;;;;;;-0.57;100.00;100882.41;5043069;28;20120;-90
2023/01/29 05:18:53;;;;;;;0.50;0.50;;;;;;;-0.72;100.00;100860.47;5036329;28;20041;-91
2023/01/29 05:21:18;;;;;;;1.55;1.45;;;;;;;-0.56;100.00;100886.69;5031312;28;20547;-90
2023/01/29 05:23:52;;;;;;;0.03;0.03;;;;;;;-0.70;100.00;100863.66;5041692;28;20469;-90
2023/01/29 05:29:05;;;;;;;2.78;2.58;;;;;;;-0.63;100.00;100877.50;5042685;28;20025;-91
2023/01/29 05:31:31;;;;;;;0.00;0.00;;;;;;;-0.63;100.00;100881.03;5026709;28;20738;-90
2023/01/29 05:33:56;;;;;;;0.55;0.55;;;;;;;-0.54;100.00;100897.25;5021418;28;20033;-93
2023/01/29 05:36:24;;;;;;;0.20;0.20;;;;;;;-0.58;100.00;100890.91;5029221;28;20131;-95
2023/01/29 05:38:49;;;;;;;2.30;1.33;;;;;;;-0.58;100.00;100902.59;5017631;28;20029;-93
2023/01/29 05:41:16;;;;;;;0.30;0.30;;;;;;;-0.57;100.00;100897.94;5043614;28;20029;-94
2023/01/29 05:43:41;;;;;;;1.55;1.45;;;;;;;-0.55;100.00;100903.84;5005401;28;20025;-93
2023/01/29 05:46:07;;;;;;;1.10;1.02;;;;;;;-0.54;100.00;100902.72;5022237;28;20415;-93
2023/01/29 05:48:33;;;;;;;0.52;0.52;;;;;;;-0.63;100.00;100891.13;5006860;28;20022;-94
2023/01/29 05:51:03;;;;;;;0.93;0.65;;;;;;;-0.71;100.00;100892.03;5004838;28;20029;-94
2023/01/29 05:53:28;;;;;;;1.10;1.00;;;;;;;-0.60;100.00;100898.59;5008609;28;20048;-92
2023/01/29 05:55:56;;;;;;;0.40;0.40;;;;;;;-0.67;100.00;100893.72;5021540;28;20021;-94
2023/01/29 05:58:21;;;;;;;0.28;0.28;;;;;;;-0.75;100.00;100885.66;5020697;28;20041;-95
2023/01/29 06:00:47;;;;;;;0.73;0.73;;;;;;;-0.67;100.00;100899.19;5022376;28;20031;-92
2023/01/29 06:03:13;;;;;;;0.90;0.90;;;;;;;-0.78;100.00;100878.19;5009669;28;20041;-94
2023/01/29 06:05:39;;;;;;;0.15;0.15;;;;;;;-0.68;100.00;100896.78;5003745;28;20025;-93
2023/01/29 06:08:05;;;;;;;0.10;0.10;;;;;;;-0.60;100.00;100910.31;5008441;28;20075;-94
2023/01/29 06:10:31;;;;;;;0.10;0.10;;;;;;;-0.70;100.00;100905.31;5006297;28;20134;-90
2023/01/29 06:12:56;;;;;;;1.90;1.75;;;;;;;-0.66;100.00;100916.34;5031367;28;20426;-90
2023/01/29 06:15:23;;;;;;;0.98;0.95;;;;;;;-0.75;100.00;100907.47;5030142;28;20044;-90
2023/01/29 06:17:49;;;;;;;0.20;0.20;;;;;;;-0.65;100.00;100917.94;5032553;28;20039;-90
2023/01/29 06:20:14;;;;;;;2.17;1.98;;;;;;;-0.67;100.00;100920.19;5030359;28;20535;-90
2023/01/29 06:22:40;;;;;;;2.60;1.38;;;;;;;-0.82;100.00;100888.16;5017488;28;20045;-90
2023/01/29 06:25:06;;;;;;;1.92;1.80;;;;;;;-0.77;100.00;100912.47;5013189;28;20017;-90
2023/01/29 06:27:32;;;;;;;0.38;0.38;;;;;;;-0.78;100.00;100913.59;5022608;28;20033;-91
2023/01/29 06:29:57;;;;;;;0.68;0.68;;;;;;;-0.78;100.00;100913.59;5022192;28;20048;-94
2023/01/29 06:32:23;;;;;;;1.33;1.00;;;;;;;-0.82;100.00;100918.13;5009934;28;20116;-93
2023/01/29 06:34:48;;;;;;;0.00;0.00;;;;;;;-0.69;100.00;100938.81;5012458;28;20025;-93
2023/01/29 06:37:14;;;;;;;2.08;1.02;;;;;;;-0.75;100.00;100930.06;5008624;28;20505;-93
2023/01/29 06:39:39;;;;;;;2.05;1.95;;;;;;;-0.72;100.00;100934.81;5020331;28;20033;-93
2023/01/29 06:42:05;;;;;;;0.57;0.57;;;;;;;-0.67;100.00;100936.53;5011831;28;20033;-94
2023/01/29 06:44:31;;;;;;;0.10;0.10;;;;;;;-0.68;100.00;100945.84;5025246;28;20029;-94
2023/01/29 06:46:56;;;;;;;0.38;0.38;;;;;;;-0.66;100.00;100951.75;5014628;28;20120;-93
2023/01/29 06:49:22;;;;;;;0.47;0.47;;;;;;;-0.75;100.00;100935.50;5010183;28;20041;-90
2023/01/29 06:51:47;;;;;;;0.03;0.03;;;;;;;-0.76;100.00;100935.84;5031229;28;20025;-91
2023/01/29 06:54:13;;;;;;;0.55;0.55;;;;;;;-0.79;100.00;100925.63;5028962;28;20018;-90
2023/01/29 06:56:38;;;;;;;0.17;0.17;;;;;;;-0.71;100.00;100946.50;5025904;28;20037;-91
2023/01/29 06:59:04;;;;;;;0.22;0.22;;;;;;;-0.88;100.00;100930.38;4998789;28;20076;-91
2023/01/29 07:01:30;;;;;;;0.10;0.10;;;;;;;-0.73;100.00;100957.78;5007866;28;20048;-90
2023/01/29 07:03:56;;;;;;;2.45;1.48;;;;;;;-0.77;100.00;100937.00;5032401;28;20033;-91
2023/01/29 07:06:27;;;;;;;0.10;0.10;;;;;;;-0.78;100.00;100941.63;5028781;28;20116;-92
2023/01/29 07:08:52;;;;;;;1.83;1.33;;;;;;;-0.68;100.00;100954.00;5034483;28;20501;-94
2023/01/29 07:11:18;;;;;;;1.00;1.00;;;;;;;-0.63;100.00;100965.50;5029718;28;20032;-94
2023/01/29 07:13:43;;;;;;;0.85;0.85;;;;;;;-0.57;100.00;100968.78;5018559;28;20045;-96
2023/01/29 07:16:09;;;;;;;0.40;0.40;;;;;;;-0.79;100.00;100929.16;5011647;28;20030;-96
2023/01/29 07:18:34;;;;;;;1.45;1.35;;;;;;;-0.66;100.00;100943.56;5012362;28;20051;-95
2023/01/29 07:21:05;;;;;;;0.57;0.57;;;;;;;-0.55;100.00;100966.50;5009917;28;20441;-96
2023/01/29 07:23:30;;;;;;;1.17;0.95;;;;;;;-0.72;100.00;100939.47;5009094;28;20068;-96
2023/01/29 07:26:09;;;;;;;0.77;0.52;;;;;;;-0.55;100.00;100955.59;5013375;28;20112;-96
2023/01/29 07:28:36;;;;;;;0.90;0.90;;;;;;;-0.51;100.00;100967.41;5030462;28;20033;-92
2023/01/29 07:31:02;;;;;;;0.40;0.40;;;;;;;-0.52;100.00;100966.63;5014530;28;20071;-91
2023/01/29 07:33:28;;;;;;;0.55;0.55;;;;;;;-0.64;100.00;100936.66;5030628;28;20108;-90
2023/01/29 07:35:54;;;;;;;1.25;1.15;;;;;;;-0.61;100.00;100946.09;5040340;28;20029;-90
2023/01/29 07:38:19;;;;;;;0.43;0.43;;;;;;;-0.45;100.00;100960.63;5032096;28;20037;-89
2023/01/29 07:40:45;;;;;;;0.32;0.32;;;;;;;-0.45;100.00;100960.63;5034440;28;20074;-91
2023/01/29 07:43:11;;;;;;;0.88;0.88;;;;;;;-0.48;100.00;100964.81;5048789;28;20041;-93
2023/01/29 07:45:38;;;;;;;1.73;1.35;;;;;;;-0.48;100.00;100966.75;5007761;28;20053;-90
2023/01/29 07:48:05;;;;;;;0.73;0.73;;;;;;;-0.43;100.00;100963.78;5030559;28;20075;-90
2023/01/29 07:50:32;;;;;;;0.65;0.65;;;;;;;-0.50;100.00;100953.47;5030854;28;20034;-90
2023/01/29 07:52:57;;;;;;;0.60;0.60;;;;;;;-0.45;100.00;100957.91;5031229;28;20056;-91
2023/01/29 07:55:23;;;;;;;3.22;1.83;;;;;;;-0.40;100.00;100956.88;5036687;28;20029;-92
2023/01/29 07:57:59;;;;;;;0.15;0.15;;;;;;;-0.62;100.00;100944.50;5035769;28;20084;-90
2023/01/29 08:00:25;;;;;;;2.22;1.85;;;;;;;-0.41;100.00;100956.09;5034762;28;20116;-90
2023/01/29 08:02:50;;;;;;;0.93;0.90;;;;;;;-0.66;100.00;100933.47;5034714;28;20108;-90
2023/01/29 08:05:16;;;;;;;1.33;1.27;;;;;;;-0.43;100.00;100963.78;5022731;28;20033;-94
2023/01/29 08:07:42;;;;;;;0.65;0.65;;;;;;;-0.39;100.00;100969.34;5012136;28;20479;-93
2023/01/29 08:10:08;;;;;;;0.17;0.17;;;;;;;-0.37;100.00;100961.66;5008917;28;20076;-96
2023/01/29 08:12:34;;;;;;;1.55;1.45;;;;;;;-0.36;100.00;100969.47;5015233;28;20074;-93
2023/01/29 08:14:59;;;;;;;0.60;0.45;;;;;;;-0.34;100.00;100971.88;5029574;28;20446;-93
2023/01/29 08:17:25;;;;;;;0.45;0.45;;;;;;;-0.39;100.00;100956.53;5030460;28;20047;-94
2023/01/29 08:19:50;;;;;;;0.47;0.47;;;;;;;-0.33;100.00;100957.91;5016358;28;20684;-94
2023/01/29 08:22:16;;;;;;;0.77;0.77;;;;;;;-0.26;100.00;100979.13;5002007;28;20112;-94
2023/01/29 08:24:42;;;;;;;0.00;0.00;;;;;;;-0.38;100.00;100939.03;5011983;28;20079;-89
2023/01/29 08:27:08;;;;;;;1.95;0.68;;;;;;;-0.18;100.00;100968.09;5016578;28;20502;-90
2023/01/29 08:29:34;;;;;;;0.25;0.17;;;;;;;-0.24;100.00;100974.91;5030272;28;20032;-90
2023/01/29 08:31:59;;;;;;;1.20;1.10;;;;;;;-0.40;100.00;100954.16;5030154;28;20029;-91
2023/01/29 08:34:25;;;;;;;0.13;0.13;;;;;;;-0.35;100.00;100965.59;5033160;28;20390;-91
2023/01/29 08:36:52;;;;;;;3.63;2.72;;;;;;;-0.24;100.00;100976.88;5039407;28;20037;-91
2023/01/29 08:39:18;;;;;;;0.82;0.77;;;;;;;-0.22;100.00;100986.28;5038919;28;20079;-90
2023/01/29 08:41:43;;;;;;;0.52;0.52;;;;;;;-0.26;100.00;100973.69;5053352;28;20029;-93
2023/01/29 08:44:09;;;;;;;0.10;0.10;;;;;;;-0.35;100.00;100953.91;5023044;28;20387;-90
2023/01/29 08:46:36;;;;;;;1.05;1.00;;;;;;;-0.17;100.00;100961.53;5026786;28;20036;-92
2023/01/29 08:49:01;;;;;;;1.58;0.75;;;;;;;-0.17;100.00;100966.19;5035182;28;20461;-90
2023/01/29 08:51:27;;;;;;;0.10;0.10;;;;;;;-0.05;100.00;100991.50;5033494;28;20124;-90
2023/01/29 08:53:53;;;;;;;2.60;1.55;;;;;;;-0.22;100.00;100969.13;5016737;28;20055;-91
2023/01/29 08:56:18;;;;;;;1.67;1.58;;;;;;;-0.12;100.00;100983.09;5019531;28;20037;-90
2023/01/29 08:58:44;;;;;;;0.03;0.03;;;;;;;0.04;100.00;101001.50;5031040;28;20041;-90
2023/01/29 09:01:12;;;;;;;1.20;1.20;;;;;;;-0.20;100.00;100962.19;5034848;28;20025;-90
2023/01/29 09:03:43;;;;;;;0.60;0.52;;;;;;;-0.19;100.00;100991.06;5036661;28;20028;-94
2023/01/29 09:06:10;;;;;;;0.50;0.50;;;;;;;-0.33;100.00;100968.81;5034644;28;20176;-96
2023/01/29 09:08:36;;;;;;;1.20;1.10;;;;;;;-0.08;100.00;101005.03;5008570;28;20024;-95
2023/01/29 09:11:01;;;;;;;0.73;0.68;;;;;;;-0.26;100.00;100981.84;5008153;28;20128;-96
2023/01/29 09:13:27;;;;;;;0.20;0.20;;;;;;;-0.20;100.00;100985.97;5013223;28;20036;-95
2023/01/29 09:15:52;;;;;;;0.20;0.20;;;;;;;-0.07;100.00;101004.69;5023937;28;20037;-96
2023/01/29 09:18:18;;;;;;;0.65;0.65;;;;;;;-0.07;100.00;101006.59;5014121;28;20040;-95
2023/01/29 09:20:44;;;;;;;1.73;1.35;;;;;;;-0.07;100.00;101004.69;5024983;28;20041;-92
2023/01/29 09:23:12;;;;;;;0.57;0.57;;;;;;;-0.02;100.00;101006.38;5034181;28;20029;-92
2023/01/29 09:25:38;;;;;;;2.33;1.33;;;;;;;0.06;100.00;101012.84;5031442;28;20072;-91
2023/01/29 09:28:05;;;;;;;0.55;0.43;;;;;;;0.09;100.00;101009.44;5029175;28;20448;-92
2023/01/29 09:30:32;;;;;;;0.32;0.28;;;;;;;0.13;100.00;101018.53;5028446;28;20107;-92
2023/01/29 09:32:59;;;;;;;0.10;0.10;;;;;;;0.13;100.00;101023.97;5036114;28;20112;-91
2023/01/29 09:35:24;;;;;;;1.00;1.00;;;;;;;-0.02;100.00;101007.19;5015950;28;20032;-91
2023/01/29 09:37:50;;;;;;;1.42;1.33;;;;;;;0.00;100.00;101013.09;5018918;28;20099;-92
2023/01/29 09:40:21;;;;;;;0.10;0.10;;;;;;;0.10;100.00;101019.22;5025130;28;20052;-96
2023/01/29 09:42:51;;;;;;;0.40;0.40;;;;;;;0.20;100.00;101035.13;5033825;28;20329;-95
2023/01/29 09:45:24;;;;;;;0.10;0.10;;;;;;;0.09;100.00;101006.72;5032264;28;20025;-96
2023/01/29 09:47:50;;;;;;;1.58;0.85;;;;;;;0.12;100.00;101006.03;5008903;28;20036;-95
2023/01/29 09:50:43;;;;;;;0.68;0.68;;;;;;;0.12;100.00;100990.47;5006883;28;20041;-95
2023/01/29 09:53:17;;;;;;;0.13;0.13;;;;;;;0.39;100.00;101021.69;5018071;28;20115;-96
2023/01/29 09:55:44;;;;;;;;;;;;;;;0.43;100.00;101017.91;5010880;28;20291;-92
2023/01/29 09:58:27;;;;;;;0.65;0.65;;;;;;;0.46;100.00;101022.69;5021391;28;20373;-92
2023/01/29 10:01:21;;;;;;;0.33;0.33;;;;;;;0.51;100.00;101024.38;5025548;28;20067;-95
2023/01/29 10:04:02;;;;;;;0.35;0.35;;;;;;;0.48;100.00;101025.06;5020269;28;20532;-96
2023/01/29 10:06:43;;;;;;;0.38;0.38;;;;;;;0.32;100.00;100999.63;5025754;28;20041;-93
2023/01/29 10:09:33;;;;;;;1.35;1.20;;;;;;;0.30;100.00;101007.38;5040252;28;20132;-95
2023/01/29 10:12:29;;;;;;;0.45;0.45;;;;;;;0.46;100.00;101016.41;5038614;28;20025;-94
2023/01/29 10:15:19;;;;;;;0.28;0.28;;;;;;;0.45;100.00;101004.72;5029172;28;20049;-96
2023/01/29 10:17:57;;;;;;;0.13;0.13;;;;;;;0.59;100.00;101014.47;5021249;28;20029;-91
2023/01/29 10:20:52;;;;;;;1.55;1.45;;;;;;;0.71;100.00;101020.69;5020101;28;20053;-91
2023/01/29 10:23:25;;;;;;;1.85;0.95;;;;;;;0.65;100.00;101013.84;5024904;28;20184;-90
2023/01/29 10:25:52;;;;;;;3.35;2.65;;;;;;;0.43;100.00;100985.16;5017750;28;20177;-91
2023/01/29 10:28:35;;;;;;;0.30;0.30;;;;;;;0.67;100.00;101019.78;5034636;28;20124;-90
2023/01/29 10:31:10;;;;;;;0.10;0.10;;;;;;;0.67;100.00;101017.06;5041038;28;20470;-90
2023/01/29 10:33:39;;;;;;;1.50;1.38;;;;;;;0.69;100.00;101019.44;5042646;28;20029;-91
2023/01/29 10:36:10;;;;;;;0.10;0.10;;;;;;;0.60;100.00;101026.97;5029541;28;20034;-91
2023/01/29 10:38:42;;;;;;;0.43;0.43;;;;;;;0.64;100.00;101006.81;5039021;28;20037;-91
2023/01/29 10:41:13;;;;;;;0.65;0.65;;;;;;;0.67;100.00;101022.50;5045244;28;20033;-92
2023/01/29 10:43:50;;;;;;;0.20;0.20;;;;;;;0.58;100.00;101012.84;5025674;28;20050;-92
2023/01/29 10:46:22;;;;;;;0.68;0.68;;;;;;;0.72;100.00;101011.34;5032044;28;20034;-91
2023/01/29 10:48:59;;;;;;;0.55;0.55;;;;;;;0.77;100.00;101016.53;5032931;28;20025;-90
2023/01/29 10:51:49;;;;;;;0.22;0.22;;;;;;;0.75;100.00;101004.38;5011436;28;20037;-92
2023/01/29 10:54:33;;;;;;;1.13;1.05;;;;;;;0.79;100.00;101003.34;5028183;28;20132;-92
2023/01/29 10:57:33;;;;;;;0.32;0.32;;;;;;;0.87;100.00;100986.00;5047994;28;20479;-93
2023/01/29 11:00:20;;;;;;;1.02;0.75;;;;;;;0.88;100.00;101006.72;5014562;28;20033;-95
2023/01/29 11:02:50;;;;;;;0.00;0.00;;;;;;;0.77;100.00;100967.38;5025571;28;20034;-95
2023/01/29 11:05:35;;;;;;;0.28;0.28;;;;;;;0.98;100.00;100983.56;5018912;28;20045;-96
2023/01/29 11:08:07;;;;;;;0.10;0.10;;;;;;;0.90;100.00;100982.59;5018765;28;20506;-95
2023/01/29 11:10:39;;;;;;;0.68;0.38;;;;;;;1.09;100.00;101009.25;5000460;28;20210;-95
2023/01/29 11:13:05;;;;;;;0.40;0.40;;;;;;;0.94;97.48;100983.47;5008124;28;20045;-95
2023/01/29 11:15:35;;;;;;;0.30;0.30;;;;;;;0.88;99.23;100984.09;5007545;28;20029;-96
2023/01/29 11:18:02;;;;;;;2.60;1.90;;;;;;;0.90;99.23;100982.59;5015049;28;20095;-94
2023/01/29 11:20:29;;;;;;;0.95;0.95;;;;;;;0.77;95.83;100991.97;5044867;28;20037;-96
2023/01/29 11:22:54;;;;;;;0.32;0.32;;;;;;;0.81;97.97;101006.50;5003133;28;20025;-95
2023/01/29 11:25:20;;;;;;;0.30;0.30;;;;;;;0.64;96.74;100956.88;5024944;28;20047;-94
2023/01/29 11:27:54;;;;;;;0.80;0.80;;;;;;;0.44;96.94;100947.75;5026680;28;20026;-96
2023/01/29 11:30:26;;;;;;;0.40;0.40;;;;;;;0.52;100.00;100962.38;5022327;28;20475;-96
2023/01/29 11:33:24;;;;;;;0.10;0.10;;;;;;;0.53;100.00;100945.66;5009502;28;20036;-94
2023/01/29 11:35:51;;;;;;;0.40;0.40;;;;;;;0.74;100.00;100954.44;5019310;28;20054;-91
2023/01/29 11:38:29;;;;;;;2.17;1.40;;;;;;;0.81;99.22;100954.63;5029779;28;20021;-92
2023/01/29 11:41:05;;;;;;;0.63;0.63;;;;;;;0.92;98.95;100965.84;5040759;28;20022;-91
2023/01/29 11:43:31;;;;;;;0.85;0.85;;;;;;;0.54;97.01;100944.50;5039392;28;20048;-92
2023/01/29 11:46:06;;;;;;;0.73;0.73;;;;;;;0.35;98.72;100928.78;5041156;28;20033;-92
2023/01/29 11:48:44;;;;;;;0.50;0.50;;;;;;;0.66;99.12;100966.31;5047278;28;20610;-91
2023/01/29 11:51:11;;;;;;;1.38;1.27;;;;;;;0.60;99.95;100950.53;5049165;28;20039;-91
2023/01/29 11:53:45;;;;;;;1.13;0.75;;;;;;;0.52;100.00;100941.34;5033565;28;20514;-95
2023/01/29 11:56:29;;;;;;;1.08;0.98;;;;;;;0.55;99.44;100937.13;5006666;28;20021;-95
2023/01/29 11:58:55;;;;;;;;;;;;;;;0.56;99.81;100944.97;5024160;28;20075;-94
2023/01/29 12:01:33;;;;;;;0.45;0.45;;;;;;;0.52;100.00;100927.69;5001124;28;19960;-96
2023/01/29 12:03:59;;;;;;;0.60;0.60;;;;;;;0.49;100.00;100912.00;5018927;28;20134;-95
2023/01/29 12:06:33;;;;;;;0.28;0.28;;;;;;;0.66;100.00;100917.16;5013592;28;20089;-93
2023/01/29 12:09:00;;;;;;;0.30;0.30;;;;;;;0.72;100.00;100914.97;5016015;28;20053;-95
2023/01/29 12:11:31;;;;;;;0.20;0.20;;;;;;;0.70;100.00;100898.94;5031307;28;20041;-96
2023/01/29 12:14:02;;;;;;;0.20;0.20;;;;;;;0.88;99.73;100913.06;5019788;28;20045;-91
2023/01/29 12:16:38;;;;;;;0.70;0.68;;;;;;;0.88;99.09;100908.41;5018600;28;20120;-92
2023/01/29 12:19:10;;;;;;;0.80;0.75;;;;;;;0.83;99.26;100916.84;5029854;28;20053;-91
2023/01/29 12:21:48;;;;;;;0.10;0.10;;;;;;;0.65;97.89;100899.19;5032213;28;20079;-92
2023/01/29 12:24:29;;;;;;;0.82;0.82;;;;;;;0.78;100.00;100919.03;5014707;28;20390;-93
2023/01/29 12:27:26;;;;;;;0.90;0.82;;;;;;;0.55;100.00;100907.09;5029085;28;20037;-92
2023/01/29 12:30:05;;;;;;;0.45;0.45;;;;;;;0.61;100.00;100909.22;5039074;28;20041;-90
2023/01/29 12:32:54;;;;;;;0.63;0.63;;;;;;;0.49;99.62;100912.00;5035694;28;20497;-92
2023/01/29 12:35:24;;;;;;;0.30;0.30;;;;;;;0.64;100.00;100919.47;5041578;28;20742;-93
2023/01/29 12:38:09;;;;;;;0.30;0.30;;;;;;;0.66;100.00;100917.16;5003114;28;20115;-94
2023/01/29 12:40:49;;;;;;;0.47;0.47;;;;;;;0.64;100.00;100903.06;5039728;28;20120;-94
2023/01/29 12:43:25;;;;;;;0.60;0.43;;;;;;;0.59;100.00;100903.31;5020478;28;20037;-93
2023/01/29 12:45:53;;;;;;;0.20;0.20;;;;;;;0.66;100.00;100917.16;5011983;28;20053;-93
2023/01/29 12:48:22;;;;;;;3.10;1.20;;;;;;;0.57;100.00;100897.41;5008926;28;20396;-93
2023/01/29 12:50:49;;;;;;;0.55;0.55;;;;;;;0.55;100.00;100898.91;5011977;28;20033;-90
2023/01/29 12:53:19;;;;;;;0.57;0.57;;;;;;;0.69;100.00;100904.75;5036052;28;20052;-90
2023/01/29 12:55:52;;;;;;;0.80;0.80;;;;;;;0.62;100.00;100894.41;5018776;28;20128;-90
2023/01/29 12:58:33;;;;;;;0.10;0.10;;;;;;;0.61;100.00;100892.81;5033110;28;20049;-89
2023/01/29 13:01:30;;;;;;;2.08;1.00;;;;;;;0.55;100.00;100898.91;5035756;28;20440;-92
2023/01/29 13:04:07;;;;;;;0.63;0.63;;;;;;;0.56;100.00;100895.84;5021502;28;20033;-90
2023/01/29 13:06:40;;;;;;;0.00;0.00;;;;;;;0.37;100.00;100871.91;5016333;28;20049;-89
2023/01/29 13:09:13;;;;;;;0.90;0.90;;;;;;;0.52;100.00;100884.03;5028894;28;20047;-92
2023/01/29 13:11:50;;;;;;;0.15;0.15;;;;;;;0.63;100.00;100898.75;5045342;28;20147;-93